sensor_id;sensor_type;location;lat;lon;timestamp;P1;durP1;ratioP1;P2;durP2;ratioP2
37284;SDS011;23172;53.550;9.964;2022-10-16T10:19:22;40.58;;;17.92;;
37284;SDS011;23172;53.550;9.964;2022-10-16T11:46:19;39.67;;;14.32;;
37284;SDS011;23172;53.550;9.964;2022-10-16T12:52:26;110.78;;;56.28;;
37284;SDS011;23172;53.550;9.964;2022-10-16T13:53:44;118.32;;;53.92;;
37284;SDS011;23172;53.550;9.964;2022-10-16T13:58:57;123.65;;;61.60;;
37284;SDS011;23172;53.550;9.964;2022-10-16T14:04:02;157.50;;;59.83;;
37284;SDS011;23172;53.550;9.964;2022-10-16T14:09:08;145.63;;;51.17;;
37284;SDS011;23172;53.550;9.964;2022-10-16T14:14:21;103.03;;;47.20;;
37284;SDS011;23172;53.550;9.964;2022-10-16T14:19:24;130.38;;;46.72;;
37284;SDS011;23172;53.550;9.964;2022-10-16T14:24:32;91.78;;;40.05;;
37284;SDS011;23172;53.550;9.964;2022-10-16T14:29:35;171.88;;;50.17;;
37284;SDS011;23172;53.550;9.964;2022-10-16T14:34:37;126.68;;;52.58;;
37284;SDS011;23172;53.550;9.964;2022-10-16T14:39:41;199.52;;;84.13;;
37284;SDS011;23172;53.550;9.964;2022-10-16T14:44:43;136.40;;;46.03;;
37284;SDS011;23172;53.550;9.964;2022-10-16T14:49:45;110.13;;;36.38;;
37284;SDS011;23172;53.550;9.964;2022-10-16T14:54:49;189.82;;;74.78;;
37284;SDS011;23172;53.550;9.964;2022-10-16T14:59:54;158.88;;;52.00;;
37284;SDS011;23172;53.550;9.964;2022-10-16T15:04:56;125.63;;;48.08;;
37284;SDS011;23172;53.550;9.964;2022-10-16T15:10:00;119.03;;;45.72;;
37284;SDS011;23172;53.550;9.964;2022-10-16T15:15:08;139.40;;;43.00;;
37284;SDS011;23172;53.550;9.964;2022-10-16T15:20:28;162.38;;;53.97;;
37284;SDS011;23172;53.550;9.964;2022-10-16T15:25:37;116.60;;;43.20;;
37284;SDS011;23172;53.550;9.964;2022-10-16T15:30:42;152.32;;;48.80;;
37284;SDS011;23172;53.550;9.964;2022-10-16T15:35:46;124.00;;;51.33;;
37284;SDS011;23172;53.550;9.964;2022-10-16T15:40:50;150.35;;;47.85;;
37284;SDS011;23172;53.550;9.964;2022-10-16T15:45:58;114.30;;;38.05;;
37284;SDS011;23172;53.550;9.964;2022-10-16T15:51:02;147.20;;;39.03;;
37284;SDS011;23172;53.550;9.964;2022-10-16T15:56:09;138.68;;;47.65;;
37284;SDS011;23172;53.550;9.964;2022-10-16T16:01:11;131.75;;;47.60;;
37284;SDS011;23172;53.550;9.964;2022-10-16T16:06:13;110.63;;;42.05;;
37284;SDS011;23172;53.550;9.964;2022-10-16T16:11:17;140.95;;;44.05;;
37284;SDS011;23172;53.550;9.964;2022-10-16T16:16:19;100.25;;;37.03;;
37284;SDS011;23172;53.550;9.964;2022-10-16T16:21:21;109.43;;;37.85;;
37284;SDS011;23172;53.550;9.964;2022-10-16T16:26:25;101.15;;;38.40;;
37284;SDS011;23172;53.550;9.964;2022-10-16T16:31:28;137.10;;;40.03;;
37284;SDS011;23172;53.550;9.964;2022-10-16T16:36:31;100.95;;;33.78;;
37284;SDS011;23172;53.550;9.964;2022-10-16T16:41:34;79.15;;;25.42;;
37284;SDS011;23172;53.550;9.964;2022-10-16T16:46:36;89.75;;;27.13;;
37284;SDS011;23172;53.550;9.964;2022-10-16T16:51:39;73.25;;;24.27;;
37284;SDS011;23172;53.550;9.964;2022-10-16T16:56:43;88.47;;;28.55;;
37284;SDS011;23172;53.550;9.964;2022-10-16T17:01:45;80.57;;;29.60;;
37284;SDS011;23172;53.550;9.964;2022-10-16T17:06:47;75.68;;;26.60;;
37284;SDS011;23172;53.550;9.964;2022-10-16T17:11:50;81.72;;;21.98;;
37284;SDS011;23172;53.550;9.964;2022-10-16T17:16:52;67.75;;;23.38;;
37284;SDS011;23172;53.550;9.964;2022-10-16T17:21:53;71.55;;;20.15;;
37284;SDS011;23172;53.550;9.964;2022-10-16T17:26:57;66.70;;;22.23;;
37284;SDS011;23172;53.550;9.964;2022-10-16T17:31:59;63.10;;;22.90;;
37284;SDS011;23172;53.550;9.964;2022-10-16T17:37:00;86.47;;;32.97;;
37284;SDS011;23172;53.550;9.964;2022-10-16T17:42:04;85.22;;;33.70;;
37284;SDS011;23172;53.550;9.964;2022-10-16T17:47:05;53.38;;;22.67;;
37284;SDS011;23172;53.550;9.964;2022-10-16T17:52:07;63.33;;;26.25;;
37284;SDS011;23172;53.550;9.964;2022-10-16T17:57:10;65.97;;;23.23;;
37284;SDS011;23172;53.550;9.964;2022-10-16T18:02:12;63.28;;;22.35;;
37284;SDS011;23172;53.550;9.964;2022-10-16T18:07:14;44.50;;;19.50;;
37284;SDS011;23172;53.550;9.964;2022-10-16T18:12:18;57.70;;;22.45;;
37284;SDS011;23172;53.550;9.964;2022-10-16T18:17:19;72.57;;;21.60;;
37284;SDS011;23172;53.550;9.964;2022-10-16T18:22:21;56.50;;;21.45;;
37284;SDS011;23172;53.550;9.964;2022-10-16T18:27:25;50.25;;;18.75;;
37284;SDS011;23172;53.550;9.964;2022-10-16T18:32:27;54.00;;;20.95;;
37284;SDS011;23172;53.550;9.964;2022-10-16T18:37:29;45.08;;;17.92;;
37284;SDS011;23172;53.550;9.964;2022-10-16T18:42:32;39.42;;;14.60;;
37284;SDS011;23172;53.550;9.964;2022-10-16T18:47:33;31.15;;;16.58;;
37284;SDS011;23172;53.550;9.964;2022-10-16T18:52:35;42.85;;;14.23;;
37284;SDS011;23172;53.550;9.964;2022-10-16T18:57:38;38.47;;;13.38;;
37284;SDS011;23172;53.550;9.964;2022-10-16T19:02:40;47.95;;;12.38;;
37284;SDS011;23172;53.550;9.964;2022-10-16T19:07:43;34.92;;;14.10;;
37284;SDS011;23172;53.550;9.964;2022-10-16T19:12:47;48.58;;;13.05;;
37284;SDS011;23172;53.550;9.964;2022-10-16T19:17:49;44.83;;;14.52;;
37284;SDS011;23172;53.550;9.964;2022-10-16T19:22:51;32.05;;;12.57;;
37284;SDS011;23172;53.550;9.964;2022-10-16T19:27:56;29.45;;;10.15;;
37284;SDS011;23172;53.550;9.964;2022-10-16T19:32:58;43.08;;;13.45;;
37284;SDS011;23172;53.550;9.964;2022-10-16T19:38:00;25.98;;;12.15;;
37284;SDS011;23172;53.550;9.964;2022-10-16T19:43:03;26.95;;;9.23;;
37284;SDS011;23172;53.550;9.964;2022-10-16T19:48:05;37.47;;;11.48;;
37284;SDS011;23172;53.550;9.964;2022-10-16T19:53:07;40.67;;;10.05;;
37284;SDS011;23172;53.550;9.964;2022-10-16T19:58:10;37.17;;;11.23;;
37284;SDS011;23172;53.550;9.964;2022-10-16T20:03:12;20.80;;;8.70;;
37284;SDS011;23172;53.550;9.964;2022-10-16T20:08:13;27.30;;;10.57;;
37284;SDS011;23172;53.550;9.964;2022-10-16T20:13:16;18.83;;;10.52;;
37284;SDS011;23172;53.550;9.964;2022-10-16T20:18:19;24.80;;;10.10;;
37284;SDS011;23172;53.550;9.964;2022-10-16T20:23:21;19.40;;;9.77;;
37284;SDS011;23172;53.550;9.964;2022-10-16T20:28:25;7.63;;;5.40;;
37284;SDS011;23172;53.550;9.964;2022-10-16T20:33:27;8.07;;;5.28;;
37284;SDS011;23172;53.550;9.964;2022-10-16T20:38:28;8.23;;;6.47;;
37284;SDS011;23172;53.550;9.964;2022-10-16T20:43:32;7.35;;;6.50;;
37284;SDS011;23172;53.550;9.964;2022-10-16T20:48:34;6.63;;;5.18;;
37284;SDS011;23172;53.550;9.964;2022-10-16T20:53:40;10.63;;;7.18;;
37284;SDS011;23172;53.550;9.964;2022-10-16T20:58:43;13.75;;;6.45;;
37284;SDS011;23172;53.550;9.964;2022-10-16T21:03:48;12.55;;;5.63;;
37284;SDS011;23172;53.550;9.964;2022-10-16T21:08:51;8.80;;;5.13;;
37284;SDS011;23172;53.550;9.964;2022-10-16T21:13:55;7.38;;;5.55;;
37284;SDS011;23172;53.550;9.964;2022-10-16T21:18:58;5.85;;;5.03;;
37284;SDS011;23172;53.550;9.964;2022-10-16T21:24:00;9.05;;;5.32;;
37284;SDS011;23172;53.550;9.964;2022-10-16T21:29:05;8.57;;;5.10;;
37284;SDS011;23172;53.550;9.964;2022-10-16T21:34:07;8.40;;;5.83;;
37284;SDS011;23172;53.550;9.964;2022-10-16T21:39:09;7.50;;;5.30;;
37284;SDS011;23172;53.550;9.964;2022-10-16T21:44:14;7.00;;;5.68;;
37284;SDS011;23172;53.550;9.964;2022-10-16T21:49:17;6.22;;;4.78;;
37284;SDS011;23172;53.550;9.964;2022-10-16T21:54:20;5.20;;;4.33;;
37284;SDS011;23172;53.550;9.964;2022-10-16T21:59:24;5.85;;;4.13;;
37284;SDS011;23172;53.550;9.964;2022-10-16T22:04:26;6.57;;;4.40;;
37284;SDS011;23172;53.550;9.964;2022-10-16T22:09:28;6.18;;;4.93;;
37284;SDS011;23172;53.550;9.964;2022-10-16T22:14:31;6.03;;;4.45;;
37284;SDS011;23172;53.550;9.964;2022-10-16T22:19:33;4.70;;;3.63;;
37284;SDS011;23172;53.550;9.964;2022-10-16T22:24:35;6.10;;;4.55;;
37284;SDS011;23172;53.550;9.964;2022-10-16T22:29:38;5.53;;;4.25;;
37284;SDS011;23172;53.550;9.964;2022-10-16T22:34:40;6.22;;;4.15;;
37284;SDS011;23172;53.550;9.964;2022-10-16T22:39:42;9.60;;;5.20;;
37284;SDS011;23172;53.550;9.964;2022-10-16T22:44:45;6.80;;;4.85;;
37284;SDS011;23172;53.550;9.964;2022-10-16T22:49:47;5.20;;;4.32;;
37284;SDS011;23172;53.550;9.964;2022-10-16T22:54:48;7.82;;;4.38;;
37284;SDS011;23172;53.550;9.964;2022-10-16T22:59:51;5.40;;;4.57;;
37284;SDS011;23172;53.550;9.964;2022-10-16T23:04:53;6.38;;;4.43;;
37284;SDS011;23172;53.550;9.964;2022-10-16T23:09:55;12.70;;;9.02;;
37284;SDS011;23172;53.550;9.964;2022-10-16T23:14:58;7.20;;;4.50;;
37284;SDS011;23172;53.550;9.964;2022-10-16T23:20:00;7.90;;;4.55;;
37284;SDS011;23172;53.550;9.964;2022-10-16T23:25:01;7.00;;;4.82;;
37284;SDS011;23172;53.550;9.964;2022-10-16T23:30:06;7.50;;;4.80;;
37284;SDS011;23172;53.550;9.964;2022-10-16T23:35:08;6.95;;;4.45;;
37284;SDS011;23172;53.550;9.964;2022-10-16T23:40:10;9.43;;;5.13;;
37284;SDS011;23172;53.550;9.964;2022-10-16T23:45:13;7.40;;;5.10;;
37284;SDS011;23172;53.550;9.964;2022-10-16T23:50:15;8.57;;;5.40;;
37284;SDS011;23172;53.550;9.964;2022-10-16T23:55:17;7.45;;;5.40;;
